Time;durP1;ratioP1;P1;durP2;ratioP2;P2;SDS_P1;SDS_P2;PMS_P1;PMS_P2;Temp;Humidity;BMP_temperature;BMP_pressure;BME280_temperature;BME280_humidity;BME280_pressure;Samples;Min_cycle;Max_cycle;Signal;HPM_P1;HPM_P2
2023/04/30 00:00:59;;;;;;;;;;;19.90;45.00;;;;;;4999834;28;19917;-54
2023/04/30 00:03:25;;;;;;;;;;;19.80;45.00;;;;;;4998046;28;20366;-54
2023/04/30 00:05:53;;;;;;;;;;;19.80;44.80;;;;;;5001051;28;19920;-54
2023/04/30 00:08:18;;;;;;;;;;;19.80;44.90;;;;;;5002084;28;19944;-54
2023/04/30 00:10:44;;;;;;;;;;;19.80;44.80;;;;;;5002447;28;20018;-53
2023/04/30 00:13:09;;;;;;;;;;;19.80;45.00;;;;;;5005536;28;20016;-53
2023/04/30 00:15:35;;;;;;;;;;;19.80;45.40;;;;;;5001802;28;20406;-53
2023/04/30 00:18:01;;;;;;;;;;;19.80;45.10;;;;;;5005678;28;19924;-54
2023/04/30 00:20:26;;;;;;;;;;;19.80;45.00;;;;;;5003284;28;19921;-54
2023/04/30 00:22:52;;;;;;;;;;;19.70;45.50;;;;;;5001617;28;20463;-54
2023/04/30 00:25:17;;;;;;;;;;;19.70;45.20;;;;;;5002184;28;20285;-53
2023/04/30 00:27:43;;;;;;;;;;;19.70;45.20;;;;;;5003241;28;19914;-53
2023/04/30 00:30:08;;;;;;;;;;;19.70;45.20;;;;;;5006271;28;19922;-54
2023/04/30 00:32:34;;;;;;;;;;;19.70;45.00;;;;;;5001182;28;19918;-54
2023/04/30 00:34:59;;;;;;;;;;;19.60;45.10;;;;;;5004404;28;19914;-55
2023/04/30 00:37:25;;;;;;;;;;;19.60;44.90;;;;;;5000554;28;19922;-53
2023/04/30 00:39:50;;;;;;;;;;;19.60;45.20;;;;;;5000446;28;19973;-53
2023/04/30 00:42:15;;;;;;;;;;;19.60;45.10;;;;;;5003146;28;19913;-54
2023/04/30 00:44:41;;;;;;;;;;;19.60;44.90;;;;;;5006091;28;19917;-53
2023/04/30 00:47:06;;;;;;;;;;;19.60;44.90;;;;;;5006306;28;19917;-54
2023/04/30 00:49:32;;;;;;;;;;;19.50;44.90;;;;;;5007603;28;19975;-53
2023/04/30 00:51:57;;;;;;;;;;;19.50;44.80;;;;;;5001077;28;19914;-54
2023/04/30 00:54:23;;;;;;;;;;;19.50;45.00;;;;;;5006763;28;19917;-53
2023/04/30 00:56:48;;;;;;;;;;;19.50;45.10;;;;;;5001772;28;19921;-53
2023/04/30 00:59:14;;;;;;;;;;;19.50;45.10;;;;;;5003809;28;19918;-54
2023/04/30 01:01:39;;;;;;;;;;;19.50;44.80;;;;;;5001534;28;19925;-54
2023/04/30 01:04:04;;;;;;;;;;;19.50;45.00;;;;;;5036984;28;20421;-53
2023/04/30 01:06:30;;;;;;;;;;;19.50;44.80;;;;;;5003416;28;19953;-54
2023/04/30 01:08:56;;;;;;;;;;;19.40;45.00;;;;;;5001403;28;19914;-54
2023/04/30 01:11:24;;;;;;;;;;;19.40;45.30;;;;;;5007354;28;20014;-54
2023/04/30 01:13:50;;;;;;;;;;;19.50;45.70;;;;;;5003536;28;19921;-53
2023/04/30 01:16:23;;;;;;;;;;;19.50;45.60;;;;;;5001891;28;20305;-53
2023/04/30 01:18:51;;;;;;;;;;;19.60;45.30;;;;;;5034534;28;19913;-52
2023/04/30 01:21:18;;;;;;;;;;;19.70;45.50;;;;;;5004647;28;20083;-54
2023/04/30 01:23:52;;;;;;;;;;;19.90;44.90;;;;;;5002344;28;19957;-53
2023/04/30 01:26:18;;;;;;;;;;;20.20;44.50;;;;;;5031576;28;19914;-53
2023/04/30 01:28:43;;;;;;;;;;;20.40;43.90;;;;;;4997265;28;19924;-53
2023/04/30 01:31:12;;;;;;;;;;;20.60;43.40;;;;;;5003003;28;19921;-54
2023/04/30 01:33:38;;;;;;;;;;;20.80;43.10;;;;;;5002429;28;19924;-54
2023/04/30 01:36:09;;;;;;;;;;;20.90;42.90;;;;;;5004846;28;19917;-53
2023/04/30 01:38:53;;;;;;;;;;;21.00;42.70;;;;;;5033387;28;19968;-53
2023/04/30 01:41:23;;;;;;;;;;;20.90;42.60;;;;;;5012439;28;19925;-53
2023/04/30 01:43:52;;;;;;;;;;;20.90;42.80;;;;;;5004841;28;20370;-53
2023/04/30 01:46:24;;;;;;;;;;;20.80;42.70;;;;;;4996883;28;19920;-54
2023/04/30 01:48:49;;;;;;;;;;;20.80;43.00;;;;;;5004957;28;19921;-53
2023/04/30 01:51:31;;;;;;;;;;;20.70;43.00;;;;;;5000323;28;19921;-54
2023/04/30 01:53:57;;;;;;;;;;;20.60;42.90;;;;;;5000787;28;19913;-54
2023/04/30 01:56:37;;;;;;;;;;;20.60;43.40;;;;;;5033175;28;20257;-53
2023/04/30 01:59:02;;;;;;;;;;;20.50;43.40;;;;;;5007937;28;19925;-54
2023/04/30 02:01:29;;;;;;;;;;;20.40;43.40;;;;;;4996350;28;20348;-54
2023/04/30 02:03:54;;;;;;;;;;;20.40;43.40;;;;;;5010431;28;19924;-53
2023/04/30 02:06:20;;;;;;;;;;;20.30;43.80;;;;;;4999117;28;19914;-54
2023/04/30 02:08:45;;;;;;;;;;;20.30;43.60;;;;;;5000785;28;20429;-54
2023/04/30 02:11:11;;;;;;;;;;;20.20;43.80;;;;;;5003348;28;19918;-54
2023/04/30 02:13:36;;;;;;;;;;;20.20;43.80;;;;;;5003539;28;20392;-53
2023/04/30 02:16:03;;;;;;;;;;;20.10;43.80;;;;;;5005023;28;19918;-53
2023/04/30 02:18:28;;;;;;;;;;;20.10;44.20;;;;;;4999470;28;19973;-54
2023/04/30 02:20:53;;;;;;;;;;;20.10;44.20;;;;;;5004892;28;20028;-54
2023/04/30 02:23:19;;;;;;;;;;;20.00;44.10;;;;;;5000950;28;19914;-54
2023/04/30 02:25:44;;;;;;;;;;;20.10;45.00;;;;;;5000575;28;20373;-54
2023/04/30 02:28:10;;;;;;;;;;;20.00;43.90;;;;;;5002757;28;20378;-53
2023/04/30 02:30:35;;;;;;;;;;;20.00;43.90;;;;;;5003636;28;20018;-54
2023/04/30 02:33:02;;;;;;;;;;;20.00;43.70;;;;;;4995441;28;19984;-54
2023/04/30 02:35:27;;;;;;;;;;;20.10;43.50;;;;;;5002490;28;19959;-54
2023/04/30 02:37:53;;;;;;;;;;;20.10;43.50;;;;;;4995001;28;19961;-53
2023/04/30 02:40:18;;;;;;;;;;;20.20;44.30;;;;;;4999486;28;19925;-53
2023/04/30 02:42:44;;;;;;;;;;;20.30;43.30;;;;;;5003419;28;19918;-54
2023/04/30 02:45:09;;;;;;;;;;;20.40;43.20;;;;;;4999812;28;19977;-53
2023/04/30 02:47:35;;;;;;;;;;;20.40;42.80;;;;;;4999584;28;19921;-53
2023/04/30 02:50:00;;;;;;;;;;;20.40;43.10;;;;;;5003337;28;20424;-54
2023/04/30 02:52:26;;;;;;;;;;;20.40;42.80;;;;;;5003548;28;19921;-53
2023/04/30 02:54:51;;;;;;;;;;;20.40;43.00;;;;;;5002021;28;20380;-54
2023/04/30 02:57:17;;;;;;;;;;;20.30;42.90;;;;;;4995903;28;19921;-54
2023/04/30 02:59:44;;;;;;;;;;;20.30;42.90;;;;;;5000061;28;20282;-53
2023/04/30 03:02:10;;;;;;;;;;;20.20;43.00;;;;;;5004315;28;19925;-54
2023/04/30 03:04:35;;;;;;;;;;;20.10;43.30;;;;;;5004284;28;19919;-53
2023/04/30 03:07:02;;;;;;;;;;;20.10;43.60;;;;;;4999953;28;19921;-54
2023/04/30 03:09:29;;;;;;;;;;;20.00;43.30;;;;;;4997115;28;19920;-54
2023/04/30 03:11:54;;;;;;;;;;;19.90;43.40;;;;;;4993805;28;19921;-54
2023/04/30 03:14:19;;;;;;;;;;;19.90;43.80;;;;;;5003635;28;19914;-54
2023/04/30 03:16:45;;;;;;;;;;;19.90;44.00;;;;;;5001065;28;19968;-54
2023/04/30 03:19:10;;;;;;;;;;;19.80;43.90;;;;;;5004785;28;19913;-53
2023/04/30 03:21:36;;;;;;;;;;;19.80;43.90;;;;;;4999456;28;19921;-53
2023/04/30 03:24:01;;;;;;;;;;;19.70;43.90;;;;;;4997505;28;19924;-54
2023/04/30 03:26:27;;;;;;;;;;;19.80;44.20;;;;;;5001795;28;19914;-53
2023/04/30 03:28:54;;;;;;;;;;;19.80;44.10;;;;;;4998481;28;20008;-54
2023/04/30 03:31:20;;;;;;;;;;;19.70;43.70;;;;;;5000139;28;19992;-53
2023/04/30 03:33:45;;;;;;;;;;;19.70;43.70;;;;;;5002388;28;20020;-54
2023/04/30 03:36:11;;;;;;;;;;;19.80;43.70;;;;;;5001872;28;19913;-54
2023/04/30 03:38:37;;;;;;;;;;;19.80;43.80;;;;;;4995448;28;19914;-53
2023/04/30 03:41:02;;;;;;;;;;;19.80;43.70;;;;;;4999786;28;19975;-54
2023/04/30 03:43:28;;;;;;;;;;;19.90;43.20;;;;;;5002317;28;20007;-54
2023/04/30 03:45:53;;;;;;;;;;;19.90;43.20;;;;;;5000574;28;20000;-54
2023/04/30 03:48:19;;;;;;;;;;;20.00;43.20;;;;;;5007930;28;19922;-53
2023/04/30 03:50:45;;;;;;;;;;;20.10;43.20;;;;;;4997172;28;19913;-54
2023/04/30 03:53:10;;;;;;;;;;;20.10;42.70;;;;;;5003080;28;19919;-53
2023/04/30 03:55:36;;;;;;;;;;;20.10;42.70;;;;;;5000405;28;20012;-53
2023/04/30 03:58:01;;;;;;;;;;;20.20;42.90;;;;;;5004269;28;19921;-53
2023/04/30 04:00:27;;;;;;;;;;;20.10;42.90;;;;;;5002494;28;20444;-53
2023/04/30 04:02:52;;;;;;;;;;;20.10;42.80;;;;;;5000772;28;19917;-54
2023/04/30 04:05:17;;;;;;;;;;;20.10;42.80;;;;;;5004293;28;19914;-53
2023/04/30 04:07:43;;;;;;;;;;;20.00;42.80;;;;;;4999950;28;19941;-54
2023/04/30 04:10:08;;;;;;;;;;;20.00;43.10;;;;;;4997759;28;19929;-54
2023/04/30 04:12:34;;;;;;;;;;;20.00;43.20;;;;;;5005937;28;19961;-54
2023/04/30 04:14:59;;;;;;;;;;;20.00;43.30;;;;;;5008257;28;19914;-53
2023/04/30 04:17:25;;;;;;;;;;;20.00;43.20;;;;;;5004050;28;19959;-53
2023/04/30 04:19:50;;;;;;;;;;;19.90;43.30;;;;;;5000419;28;19957;-53
2023/04/30 04:22:16;;;;;;;;;;;19.90;43.40;;;;;;4997088;28;19913;-53
2023/04/30 04:24:41;;;;;;;;;;;19.90;43.50;;;;;;5002344;28;19914;-53
2023/04/30 04:27:07;;;;;;;;;;;19.90;43.20;;;;;;5005779;28;20056;-53
2023/04/30 04:29:32;;;;;;;;;;;19.80;43.20;;;;;;5002986;28;19924;-54
2023/04/30 04:31:59;;;;;;;;;;;19.80;43.30;;;;;;5001842;28;19917;-53
2023/04/30 04:34:25;;;;;;;;;;;19.80;43.40;;;;;;5014995;28;20098;-54
2023/04/30 04:36:51;;;;;;;;;;;19.80;43.30;;;;;;5000391;28;19920;-53
2023/04/30 04:39:17;;;;;;;;;;;19.80;43.30;;;;;;5001448;28;20445;-54
2023/04/30 04:41:42;;;;;;;;;;;19.90;43.10;;;;;;5008413;28;19953;-53
2023/04/30 04:44:08;;;;;;;;;;;19.90;43.00;;;;;;5003901;28;19913;-53
2023/04/30 04:46:33;;;;;;;;;;;20.00;42.90;;;;;;4998508;28;19929;-53
2023/04/30 04:48:59;;;;;;;;;;;20.00;42.90;;;;;;5004166;28;19976;-53
2023/04/30 04:51:24;;;;;;;;;;;20.10;42.60;;;;;;5003319;28;19968;-53
2023/04/30 04:53:50;;;;;;;;;;;20.00;42.80;;;;;;5034258;28;19914;-53
2023/04/30 04:56:15;;;;;;;;;;;20.00;42.70;;;;;;5005723;28;19917;-53
2023/04/30 04:58:41;;;;;;;;;;;20.00;42.70;;;;;;5000525;28;19925;-53
2023/04/30 05:01:06;;;;;;;;;;;20.00;42.60;;;;;;5004444;28;20393;-53
2023/04/30 05:03:32;;;;;;;;;;;20.00;42.90;;;;;;5002088;28;19960;-54
2023/04/30 05:05:57;;;;;;;;;;;20.00;43.50;;;;;;5004707;28;20378;-53
2023/04/30 05:08:23;;;;;;;;;;;19.90;43.00;;;;;;5002270;28;20376;-54
2023/04/30 05:10:49;;;;;;;;;;;19.90;42.90;;;;;;5002579;28;20177;-54
2023/04/30 05:13:14;;;;;;;;;;;19.80;42.90;;;;;;5000371;28;19917;-54
2023/04/30 05:15:40;;;;;;;;;;;19.80;42.70;;;;;;4999908;28;19914;-53
2023/04/30 05:18:05;;;;;;;;;;;19.80;42.90;;;;;;5004522;28;20301;-54
2023/04/30 05:20:30;;;;;;;;;;;19.70;43.10;;;;;;4999383;28;19967;-54
2023/04/30 05:22:56;;;;;;;;;;;19.70;43.20;;;;;;5001876;28;20044;-53
2023/04/30 05:25:21;;;;;;;;;;;19.60;43.00;;;;;;5007342;28;20397;-53
2023/04/30 05:27:47;;;;;;;;;;;19.60;43.30;;;;;;5001133;28;19917;-54
2023/04/30 05:30:14;;;;;;;;;;;19.60;43.30;;;;;;5002273;28;19918;-53
2023/04/30 05:32:40;;;;;;;;;;;19.60;43.00;;;;;;4997808;28;19918;-54
2023/04/30 05:35:06;;;;;;;;;;;19.60;42.90;;;;;;5001682;28;19921;-54
2023/04/30 05:37:31;;;;;;;;;;;19.50;43.40;;;;;;5003767;28;20011;-53
2023/04/30 05:39:57;;;;;;;;;;;19.60;43.10;;;;;;5004668;28;19921;-53
2023/04/30 05:42:22;;;;;;;;;;;19.50;43.30;;;;;;5003431;28;19914;-53
2023/04/30 05:44:48;;;;;;;;;;;19.50;43.20;;;;;;5002468;28;19920;-53
2023/04/30 05:47:13;;;;;;;;;;;19.50;43.30;;;;;;4998210;28;20433;-54
2023/04/30 05:49:39;;;;;;;;;;;19.50;43.00;;;;;;4999191;28;20056;-53
2023/04/30 05:52:05;;;;;;;;;;;19.50;43.10;;;;;;5001732;28;19918;-55
2023/04/30 05:54:30;;;;;;;;;;;19.50;43.20;;;;;;5002993;28;20309;-53
2023/04/30 05:56:55;;;;;;;;;;;19.50;43.00;;;;;;5002903;28;19920;-53
2023/04/30 05:59:21;;;;;;;;;;;19.50;43.10;;;;;;5003322;28;19914;-53
2023/04/30 06:01:46;;;;;;;;;;;19.60;43.00;;;;;;4998187;28;20012;-54
2023/04/30 06:04:12;;;;;;;;;;;19.60;43.10;;;;;;4996349;28;19945;-53
2023/04/30 06:06:37;;;;;;;;;;;19.70;43.00;;;;;;4999249;28;19960;-54
2023/04/30 06:09:03;;;;;;;;;;;19.70;43.10;;;;;;4997567;28;20397;-54
2023/04/30 06:11:28;;;;;;;;;;;19.70;42.80;;;;;;5003279;28;20346;-54
2023/04/30 06:13:54;;;;;;;;;;;19.70;42.60;;;;;;5029892;28;20289;-53
2023/04/30 06:16:20;;;;;;;;;;;19.70;42.70;;;;;;5031800;28;19960;-53
2023/04/30 06:18:45;;;;;;;;;;;19.70;42.90;;;;;;4999260;28;20349;-53
2023/04/30 06:21:11;;;;;;;;;;;19.70;42.80;;;;;;5003162;28;20008;-54
2023/04/30 06:23:36;;;;;;;;;;;19.80;42.70;;;;;;4998838;28;19914;-53
2023/04/30 06:26:02;;;;;;;;;;;19.80;42.80;;;;;;5002243;28;19967;-53
2023/04/30 06:28:27;;;;;;;;;;;19.90;42.80;;;;;;5000562;28;19916;-53
2023/04/30 06:30:53;;;;;;;;;;;19.80;42.70;;;;;;4998466;28;20387;-53
2023/04/30 06:33:19;;;;;;;;;;;19.80;42.50;;;;;;5000025;28;19975;-53
2023/04/30 06:35:45;;;;;;;;;;;19.80;42.60;;;;;;4999231;28;19914;-53
2023/04/30 06:38:10;;;;;;;;;;;19.80;43.10;;;;;;5003816;28;20013;-54
2023/04/30 06:40:36;;;;;;;;;;;19.70;42.60;;;;;;5000551;28;19920;-55
2023/04/30 06:43:01;;;;;;;;;;;19.70;43.00;;;;;;5014945;28;19914;-53
2023/04/30 06:45:27;;;;;;;;;;;19.70;42.90;;;;;;4997824;28;20348;-53
2023/04/30 06:47:53;;;;;;;;;;;19.70;43.10;;;;;;5031586;28;19921;-54
2023/04/30 06:50:20;;;;;;;;;;;19.70;43.20;;;;;;4997913;28;19917;-53
2023/04/30 06:52:45;;;;;;;;;;;19.60;43.20;;;;;;4998080;28;19914;-53
2023/04/30 06:55:11;;;;;;;;;;;19.60;43.20;;;;;;4997341;28;19914;-53
2023/04/30 06:57:36;;;;;;;;;;;19.60;43.10;;;;;;5000358;28;19928;-54
2023/04/30 07:00:03;;;;;;;;;;;19.60;43.30;;;;;;5001460;28;19909;-53
2023/04/30 07:02:29;;;;;;;;;;;19.60;43.30;;;;;;4995975;28;20274;-54
2023/04/30 07:04:54;;;;;;;;;;;19.60;43.20;;;;;;4999631;28;20004;-54
2023/04/30 07:07:20;;;;;;;;;;;19.60;43.40;;;;;;5002029;28;20030;-53
2023/04/30 07:09:45;;;;;;;;;;;19.60;42.90;;;;;;4996134;28;19914;-53
2023/04/30 07:12:12;;;;;;;;;;;19.60;43.20;;;;;;5000730;28;19917;-54
2023/04/30 07:14:38;;;;;;;;;;;19.60;43.30;;;;;;5026225;28;19971;-54
2023/04/30 07:17:03;;;;;;;;;;;19.60;42.90;;;;;;4991189;28;20716;-54
2023/04/30 07:19:29;;;;;;;;;;;19.60;43.10;;;;;;5002645;28;20397;-53
2023/04/30 07:21:54;;;;;;;;;;;19.60;42.90;;;;;;5001817;28;19921;-54
2023/04/30 07:24:20;;;;;;;;;;;19.60;43.10;;;;;;4997556;28;19968;-53
2023/04/30 07:26:45;;;;;;;;;;;19.60;42.80;;;;;;4999582;28;20077;-54
2023/04/30 07:29:10;;;;;;;;;;;19.60;43.00;;;;;;4995368;28;19918;-53
2023/04/30 07:31:36;;;;;;;;;;;19.70;43.10;;;;;;4997915;28;19913;-54
2023/04/30 07:34:01;;;;;;;;;;;19.70;42.90;;;;;;4998477;28;19937;-54
2023/04/30 07:36:27;;;;;;;;;;;19.60;42.90;;;;;;4997106;28;19976;-53
2023/04/30 07:38:52;;;;;;;;;;;19.60;42.80;;;;;;4999793;28;19918;-53
2023/04/30 07:41:18;;;;;;;;;;;19.60;42.80;;;;;;4999379;28;19939;-54
2023/04/30 07:43:43;;;;;;;;;;;19.50;43.00;;;;;;4994476;28;19917;-53
2023/04/30 07:46:09;;;;;;;;;;;19.50;42.90;;;;;;4998258;28;19925;-53
2023/04/30 07:48:34;;;;;;;;;;;19.50;42.90;;;;;;4999960;28;20355;-53
2023/04/30 07:51:00;;;;;;;;;;;19.50;43.00;;;;;;5004101;28;19920;-54
2023/04/30 07:53:26;;;;;;;;;;;19.50;43.00;;;;;;4994316;28;20068;-53
2023/04/30 07:55:51;;;;;;;;;;;19.50;43.20;;;;;;5001932;28;19936;-53
2023/04/30 07:58:17;;;;;;;;;;;19.50;43.20;;;;;;4990840;28;19960;-53
2023/04/30 08:00:42;;;;;;;;;;;19.50;43.00;;;;;;4999342;28;19918;-54
2023/04/30 08:03:08;;;;;;;;;;;19.50;43.20;;;;;;4993271;28;20509;-54
2023/04/30 08:05:33;;;;;;;;;;;19.50;42.90;;;;;;4995327;28;19918;-54
2023/04/30 08:07:59;;;;;;;;;;;19.50;43.00;;;;;;4998826;28;20421;-54
2023/04/30 08:10:25;;;;;;;;;;;19.50;43.00;;;;;;4992373;28;19926;-53
2023/04/30 08:12:51;;;;;;;;;;;19.50;43.20;;;;;;4997352;28;20470;-53
2023/04/30 08:15:21;;;;;;;;;;;19.50;43.20;;;;;;4997758;28;21298;-53
2023/04/30 08:17:50;;;;;;;;;;;19.50;43.30;;;;;;4997827;28;19914;-53
2023/04/30 08:20:15;;;;;;;;;;;19.60;43.30;;;;;;5001069;28;19944;-54
2023/04/30 08:22:41;;;;;;;;;;;19.60;42.90;;;;;;4991923;28;19914;-54
2023/04/30 08:25:09;;;;;;;;;;;19.60;42.70;;;;;;4985609;28;19914;-53
2023/04/30 08:27:34;;;;;;;;;;;19.60;43.00;;;;;;4986671;28;20354;-53
2023/04/30 08:30:00;;;;;;;;;;;19.70;43.20;;;;;;4989224;28;19971;-53
2023/04/30 08:32:26;;;;;;;;;;;19.70;43.10;;;;;;4985625;28;19913;-54
2023/04/30 08:34:51;;;;;;;;;;;19.70;43.20;;;;;;4988563;28;20020;-54
2023/04/30 08:37:17;;;;;;;;;;;19.70;43.10;;;;;;4991055;28;20013;-54
2023/04/30 08:39:42;;;;;;;;;;;19.80;43.20;;;;;;5004098;28;20468;-53
2023/04/30 08:42:08;;;;;;;;;;;19.70;42.90;;;;;;5032216;28;20024;-53
2023/04/30 08:44:35;;;;;;;;;;;19.70;43.10;;;;;;5005173;28;19922;-53
2023/04/30 08:47:00;;;;;;;;;;;19.70;42.70;;;;;;5003742;28;19953;-54
2023/04/30 08:49:27;;;;;;;;;;;19.70;42.80;;;;;;5004287;28;19957;-54
2023/04/30 08:51:52;;;;;;;;;;;19.70;42.90;;;;;;5003275;28;19917;-54
2023/04/30 08:54:18;;;;;;;;;;;19.70;43.10;;;;;;5036948;28;20397;-53
2023/04/30 08:56:46;;;;;;;;;;;19.80;43.10;;;;;;5006123;28;19976;-54
2023/04/30 08:59:12;;;;;;;;;;;19.80;42.90;;;;;;5038389;28;19914;-53
2023/04/30 09:01:37;;;;;;;;;;;19.80;42.90;;;;;;5001078;28;19924;-53
2023/04/30 09:04:03;;;;;;;;;;;19.80;42.90;;;;;;5004519;28;19960;-54
2023/04/30 09:06:28;;;;;;;;;;;19.80;42.80;;;;;;5004086;28;19917;-53
2023/04/30 09:08:54;;;;;;;;;;;19.80;42.90;;;;;;5000261;28;20436;-53
2023/04/30 09:11:22;;;;;;;;;;;19.80;42.60;;;;;;4989474;28;20020;-54
2023/04/30 09:13:54;;;;;;;;;;;19.90;42.80;;;;;;4987986;28;19914;-53
2023/04/30 09:16:20;;;;;;;;;;;19.90;42.70;;;;;;4998150;28;20008;-53
2023/04/30 09:18:46;;;;;;;;;;;19.90;42.80;;;;;;4991177;28;20346;-54
2023/04/30 09:21:11;;;;;;;;;;;19.90;42.50;;;;;;4993786;28;19996;-54
2023/04/30 09:23:45;;;;;;;;;;;19.90;42.70;;;;;;4991176;28;20020;-53
2023/04/30 09:26:16;;;;;;;;;;;19.90;42.40;;;;;;5001247;28;20325;-54
2023/04/30 09:28:53;;;;;;;;;;;19.90;41.90;;;;;;4995226;28;20008;-54
2023/04/30 09:31:19;;;;;;;;;;;19.80;41.80;;;;;;4990574;28;19921;-54
2023/04/30 09:33:46;;;;;;;;;;;19.80;42.20;;;;;;4990874;28;19914;-54
2023/04/30 09:36:11;;;;;;;;;;;19.70;42.40;;;;;;4986867;28;19966;-54
2023/04/30 09:38:37;;;;;;;;;;;19.80;42.60;;;;;;5016964;28;19924;-53
2023/04/30 09:41:02;;;;;;;;;;;19.80;42.10;;;;;;4984312;28;19932;-54
2023/04/30 09:43:28;;;;;;;;;;;19.80;41.80;;;;;;4991867;28;19919;-53
2023/04/30 09:45:54;;;;;;;;;;;19.80;42.20;;;;;;5003846;28;20008;-53
2023/04/30 09:48:22;;;;;;;;;;;19.80;42.40;;;;;;5003113;28;20438;-53
2023/04/30 09:50:48;;;;;;;;;;;19.90;42.20;;;;;;4998294;28;20020;-53
2023/04/30 09:53:16;;;;;;;;;;;19.90;42.20;;;;;;5035515;28;20445;-54
2023/04/30 09:55:48;;;;;;;;;;;19.90;42.50;;;;;;5002337;28;19968;-53
2023/04/30 09:58:14;;;;;;;;;;;20.00;42.20;;;;;;4991674;28;20339;-53
2023/04/30 10:00:39;;;;;;;;;;;20.00;42.20;;;;;;4987889;28;19996;-53
2023/04/30 10:03:06;;;;;;;;;;;20.00;42.30;;;;;;5024078;28;20004;-55
2023/04/30 10:05:34;;;;;;;;;;;20.10;42.30;;;;;;4989079;28;20301;-54
2023/04/30 10:08:00;;;;;;;;;;;20.10;41.80;;;;;;4986464;28;20380;-54
2023/04/30 10:10:25;;;;;;;;;;;20.10;42.10;;;;;;4988792;28;19917;-53
2023/04/30 10:12:52;;;;;;;;;;;20.10;41.90;;;;;;4986480;28;20301;-54
2023/04/30 10:15:24;;;;;;;;;;;20.10;42.20;;;;;;5017181;28;19968;-53
2023/04/30 10:17:53;;;;;;;;;;;20.10;41.90;;;;;;5018791;28;20615;-53
2023/04/30 10:20:18;;;;;;;;;;;20.10;42.00;;;;;;4984798;28;20259;-53
2023/04/30 10:22:45;;;;;;;;;;;20.10;42.00;;;;;;4999613;28;19944;-53
2023/04/30 10:25:12;;;;;;;;;;;20.10;42.10;;;;;;4991131;28;20285;-53
2023/04/30 10:27:38;;;;;;;;;;;20.10;42.00;;;;;;5027075;28;20012;-53
2023/04/30 10:30:03;;;;;;;;;;;20.10;42.20;;;;;;5002334;28;20009;-53
2023/04/30 10:32:31;;;;;;;;;;;20.10;42.20;;;;;;4992193;28;20057;-54
2023/04/30 10:35:05;;;;;;;;;;;20.10;42.30;;;;;;5032306;28;19958;-53
2023/04/30 10:37:43;;;;;;;;;;;20.10;42.00;;;;;;4998691;28;19917;-54
2023/04/30 10:40:08;;;;;;;;;;;20.10;42.20;;;;;;4989539;28;19914;-55
2023/04/30 10:42:34;;;;;;;;;;;20.10;42.20;;;;;;5029940;28;19918;-53
2023/04/30 10:45:03;;;;;;;;;;;20.10;43.00;;;;;;4997054;28;19918;-53
2023/04/30 10:47:29;;;;;;;;;;;20.10;42.30;;;;;;5000715;28;19924;-53
2023/04/30 10:50:01;;;;;;;;;;;20.10;42.30;;;;;;4998808;28;20362;-54
2023/04/30 10:52:27;;;;;;;;;;;20.10;42.40;;;;;;4999606;28;19913;-53
2023/04/30 10:54:53;;;;;;;;;;;20.20;42.30;;;;;;5000985;28;19953;-53
2023/04/30 10:57:18;;;;;;;;;;;20.20;42.30;;;;;;5002020;28;20572;-53
2023/04/30 10:59:50;;;;;;;;;;;20.20;42.30;;;;;;5000585;28;19917;-53
2023/04/30 11:02:16;;;;;;;;;;;20.20;42.20;;;;;;4998376;28;19945;-53
2023/04/30 11:05:02;;;;;;;;;;;20.20;42.20;;;;;;5002336;28;19914;-52
2023/04/30 11:07:27;;;;;;;;;;;20.20;42.10;;;;;;5003129;28;19921;-53
2023/04/30 11:09:53;;;;;;;;;;;20.30;42.20;;;;;;5001235;28;19913;-54
2023/04/30 11:12:20;;;;;;;;;;;20.30;42.10;;;;;;5017452;28;20306;-53
2023/04/30 11:14:45;;;;;;;;;;;20.30;42.10;;;;;;5000008;28;20307;-53
2023/04/30 11:17:12;;;;;;;;;;;20.30;42.00;;;;;;5001357;28;20000;-53
2023/04/30 11:19:50;;;;;;;;;;;20.30;42.00;;;;;;5003366;28;20374;-53
2023/04/30 11:22:16;;;;;;;;;;;20.30;41.90;;;;;;4997548;28;20275;-53
2023/04/30 11:25:00;;;;;;;;;;;20.30;41.70;;;;;;5000059;28;19964;-53
2023/04/30 11:27:26;;;;;;;;;;;20.30;41.50;;;;;;4998368;28;19949;-53
2023/04/30 11:29:52;;;;;;;;;;;20.30;41.20;;;;;;4993174;28;20004;-53
2023/04/30 11:32:18;;;;;;;;;;;20.30;41.30;;;;;;5030267;28;19920;-53
2023/04/30 11:34:44;;;;;;;;;;;20.40;41.60;;;;;;4997634;28;19913;-53
2023/04/30 11:37:11;;;;;;;;;;;20.40;41.70;;;;;;4996954;28;19918;-53
2023/04/30 11:39:37;;;;;;;;;;;20.40;41.60;;;;;;4994894;28;19914;-53
2023/04/30 11:42:02;;;;;;;;;;;20.40;41.70;;;;;;5024998;28;19928;-53
2023/04/30 11:44:28;;;;;;;;;;;20.40;41.60;;;;;;4999874;28;19921;-53
2023/04/30 11:46:54;;;;;;;;;;;20.40;41.50;;;;;;5001424;28;19921;-53
2023/04/30 11:49:20;;;;;;;;;;;20.50;41.40;;;;;;5001888;28;19917;-53
2023/04/30 11:51:49;;;;;;;;;;;20.50;41.30;;;;;;5000254;28;19964;-53
2023/04/30 11:54:15;;;;;;;;;;;20.50;41.40;;;;;;4999726;28;20385;-53
2023/04/30 11:56:44;;;;;;;;;;;20.50;41.50;;;;;;5000570;28;19917;-53
2023/04/30 11:59:09;;;;;;;;;;;20.50;41.40;;;;;;4999341;28;19918;-53
2023/04/30 12:01:35;;;;;;;;;;;20.50;41.60;;;;;;4992630;28;19921;-53
2023/04/30 12:04:02;;;;;;;;;;;20.50;41.70;;;;;;4992549;28;19920;-53
2023/04/30 12:06:28;;;;;;;;;;;20.50;41.60;;;;;;4995956;28;20398;-53
2023/04/30 12:08:54;;;;;;;;;;;20.50;41.60;;;;;;5031449;28;19925;-53
2023/04/30 12:11:24;;;;;;;;;;;20.50;41.70;;;;;;5001560;28;19922;-53
2023/04/30 12:14:13;;;;;;;;;;;20.60;41.70;;;;;;4994818;28;19921;-53
2023/04/30 12:16:39;;;;;;;;;;;20.60;41.60;;;;;;4990625;28;19927;-54
2023/04/30 12:19:05;;;;;;;;;;;20.60;41.40;;;;;;4988947;28;19926;-53
2023/04/30 12:21:30;;;;;;;;;;;20.60;41.60;;;;;;4988781;28;20581;-53
2023/04/30 12:23:56;;;;;;;;;;;20.60;41.50;;;;;;4989126;28;20608;-53
2023/04/30 12:26:21;;;;;;;;;;;20.70;41.50;;;;;;4988545;28;19990;-53
2023/04/30 12:28:48;;;;;;;;;;;20.70;41.60;;;;;;4993178;28;19921;-54
2023/04/30 12:31:13;;;;;;;;;;;20.70;41.70;;;;;;5019274;28;19918;-53
2023/04/30 12:33:39;;;;;;;;;;;20.70;41.60;;;;;;4989005;28;19918;-54
2023/04/30 12:36:04;;;;;;;;;;;20.70;41.70;;;;;;5003068;28;19918;-53
2023/04/30 12:38:29;;;;;;;;;;;20.70;41.70;;;;;;5034072;28;19961;-54
2023/04/30 12:40:55;;;;;;;;;;;20.80;41.70;;;;;;4999758;28;20008;-54
2023/04/30 12:43:20;;;;;;;;;;;20.80;41.80;;;;;;5002438;28;19985;-53
2023/04/30 12:45:47;;;;;;;;;;;20.80;41.90;;;;;;5001562;28;19929;-53
2023/04/30 12:48:12;;;;;;;;;;;20.80;41.90;;;;;;5004752;28;19959;-53
2023/04/30 12:50:38;;;;;;;;;;;20.80;41.90;;;;;;4994278;28;19914;-53
2023/04/30 12:53:03;;;;;;;;;;;20.80;41.80;;;;;;5002836;28;19963;-53
2023/04/30 12:55:30;;;;;;;;;;;20.90;41.80;;;;;;4996887;28;19918;-53
2023/04/30 12:58:22;;;;;;;;;;;20.90;41.90;;;;;;5034614;28;19910;-53
2023/04/30 13:00:48;;;;;;;;;;;20.90;41.80;;;;;;5000268;28;19918;-52
2023/04/30 13:03:14;;;;;;;;;;;20.90;41.90;;;;;;4996607;28;19932;-53
2023/04/30 13:05:40;;;;;;;;;;;20.90;41.50;;;;;;4999428;28;19918;-52
2023/04/30 13:08:06;;;;;;;;;;;20.90;41.80;;;;;;4999793;28;19917;-53
2023/04/30 13:10:32;;;;;;;;;;;20.90;41.50;;;;;;5003807;28;19909;-53
2023/04/30 13:12:58;;;;;;;;;;;20.90;41.40;;;;;;5003729;28;20393;-52
2023/04/30 13:15:23;;;;;;;;;;;20.90;41.10;;;;;;5002876;28;19914;-53
2023/04/30 13:17:49;;;;;;;;;;;21.00;41.30;;;;;;4994192;28;20329;-53
2023/04/30 13:20:15;;;;;;;;;;;20.90;41.40;;;;;;4997575;28;20370;-53
2023/04/30 13:22:40;;;;;;;;;;;21.00;41.60;;;;;;5000377;28;19961;-53
2023/04/30 13:25:06;;;;;;;;;;;21.00;41.60;;;;;;4998408;28;19917;-53
2023/04/30 13:27:31;;;;;;;;;;;21.00;41.50;;;;;;4997748;28;19920;-53
2023/04/30 13:29:57;;;;;;;;;;;21.00;41.50;;;;;;4999693;28;19913;-53
2023/04/30 13:32:22;;;;;;;;;;;21.00;41.60;;;;;;5002110;28;19913;-52
2023/04/30 13:34:48;;;;;;;;;;;21.00;41.60;;;;;;4993740;28;19918;-54
2023/04/30 13:37:13;;;;;;;;;;;21.10;41.50;;;;;;4995708;28;19918;-55
2023/04/30 13:39:39;;;;;;;;;;;21.10;41.70;;;;;;5001196;28;20422;-55
2023/04/30 13:42:04;;;;;;;;;;;21.10;41.80;;;;;;4999264;28;19925;-56
2023/04/30 13:44:32;;;;;;;;;;;21.10;41.60;;;;;;4989559;28;19961;-55
2023/04/30 13:46:57;;;;;;;;;;;21.10;41.60;;;;;;5002010;28;19917;-55
2023/04/30 13:49:23;;;;;;;;;;;21.10;41.90;;;;;;4999377;28;19914;-55
2023/04/30 13:51:48;;;;;;;;;;;21.10;41.70;;;;;;4998361;28;19917;-53
2023/04/30 13:54:14;;;;;;;;;;;21.10;41.50;;;;;;5002159;28;20447;-53
2023/04/30 13:56:39;;;;;;;;;;;21.10;41.60;;;;;;5000761;28;19961;-53
2023/04/30 13:59:05;;;;;;;;;;;21.10;41.40;;;;;;5000699;28;19921;-53
2023/04/30 14:01:31;;;;;;;;;;;21.20;41.60;;;;;;4999270;28;19917;-53
2023/04/30 14:03:57;;;;;;;;;;;21.20;41.70;;;;;;4998938;28;19913;-53
2023/04/30 14:06:23;;;;;;;;;;;21.10;41.30;;;;;;4996644;28;20394;-53
2023/04/30 14:08:48;;;;;;;;;;;21.10;41.60;;;;;;5001463;28;20417;-53
2023/04/30 14:11:14;;;;;;;;;;;21.10;41.50;;;;;;4998361;28;20505;-53